createdAt,value
2022-09-28T03:37:18.393Z,7.80
2022-09-28T03:42:20.558Z,7.90
2022-09-28T03:47:24.833Z,7.80
2022-09-28T03:57:55.439Z,7.70
2022-09-28T04:03:00.487Z,7.60
2022-09-28T04:08:10.504Z,7.60
2022-09-28T04:13:14.478Z,7.60
2022-09-28T04:18:16.329Z,7.50
2022-09-28T04:23:19.556Z,7.40
2022-09-28T04:28:24.639Z,7.40
2022-09-28T04:39:06.133Z,7.20
2022-09-28T04:44:18.495Z,7.10
2022-09-28T04:49:23.049Z,7.10
2022-09-28T04:54:26.642Z,7.10
2022-09-28T04:59:28.499Z,7.20
2022-09-28T05:04:33.714Z,7.30
2022-09-28T05:09:38.587Z,7.30
2022-09-28T05:14:41.442Z,7.30
2022-09-28T05:19:43.170Z,7.20
2022-09-28T05:24:46.217Z,7.10
2022-09-28T05:29:47.902Z,7.10
2022-09-28T05:34:49.635Z,7.00
2022-09-28T05:39:52.812Z,7.00
2022-09-28T05:44:54.584Z,6.90
2022-09-28T05:49:56.720Z,6.80
2022-09-28T05:54:59.932Z,6.80
2022-09-28T06:00:02.264Z,6.70
2022-09-28T06:05:04.593Z,6.60
2022-09-28T06:10:08.859Z,6.50
2022-09-28T06:15:10.855Z,6.50
2022-09-28T06:20:12.588Z,6.50
2022-09-28T06:25:15.899Z,6.50
2022-09-28T06:30:17.832Z,6.60
2022-09-28T06:35:19.569Z,6.70
2022-09-28T06:40:23.735Z,6.70
2022-09-28T06:45:26.757Z,6.80
2022-09-28T06:50:31.668Z,6.90
2022-09-28T06:55:34.849Z,7.00
2022-09-28T07:00:37.937Z,7.20
2022-09-28T07:05:42.772Z,7.30
2022-09-28T07:10:47.804Z,7.40
2022-09-28T07:15:53.456Z,7.40
2022-09-28T07:20:56.223Z,7.50
2022-09-28T07:26:05.842Z,7.60
2022-09-28T07:31:09.084Z,7.70
2022-09-28T07:36:10.824Z,7.70
2022-09-28T07:41:14.119Z,7.80
2022-09-28T07:46:18.838Z,7.80
2022-09-28T07:51:20.707Z,7.90
2022-09-28T07:56:27.247Z,8.10
2022-09-28T08:01:29.035Z,8.30
2022-09-28T08:06:31.044Z,8.50
2022-09-28T08:11:34.197Z,8.70
2022-09-28T08:16:39.120Z,8.60
2022-09-28T08:21:40.876Z,8.60
2022-09-28T08:26:46.833Z,8.60
2022-09-28T08:31:48.703Z,8.70
2022-09-28T08:36:50.568Z,8.70
2022-09-28T08:42:04.919Z,8.90
2022-09-28T08:47:13.305Z,9.00
2022-09-28T08:52:19.493Z,9.20
2022-09-28T08:57:27.403Z,9.20
2022-09-28T09:02:31.622Z,9.00
2022-09-28T09:08:02.142Z,9.20
2022-09-28T09:13:25.800Z,9.40
2022-09-28T09:18:43.218Z,9.70
2022-09-28T09:23:54.527Z,9.50
2022-09-28T09:29:26.582Z,9.30
2022-09-28T09:34:40.903Z,9.20
2022-09-28T09:39:56.080Z,9.10
2022-09-28T09:45:27.311Z,9.10
2022-09-28T09:50:35.543Z,9.00
2022-09-28T09:55:52.920Z,9.00
2022-09-28T10:01:05.929Z,9.70
2022-09-28T10:06:12.545Z,10.20
2022-09-28T10:11:19.094Z,10.30
2022-09-28T10:16:36.250Z,10.30
2022-09-28T10:26:56.221Z,10.00
2022-09-28T10:32:22.398Z,9.90
2022-09-28T10:49:15.039Z,10.10
2022-09-28T10:59:42.761Z,10.50
2022-09-28T11:10:22.685Z,12.00
2022-09-28T11:15:30.060Z,11.70
2022-09-28T11:20:35.275Z,11.20
2022-09-28T11:25:37.107Z,11.00
2022-09-28T11:36:10.158Z,10.80
2022-09-28T11:41:31.826Z,10.80
2022-09-28T11:46:47.002Z,11.00
2022-09-28T11:51:56.419Z,11.40
2022-09-28T11:57:04.105Z,11.80
2022-09-28T12:02:15.853Z,12.10
2022-09-28T12:07:25.060Z,12.30
2022-09-28T12:12:37.328Z,12.10
2022-09-28T12:17:43.237Z,11.80
2022-09-28T12:23:02.521Z,11.70
2022-09-28T12:28:08.504Z,11.80
2022-09-28T12:33:19.706Z,11.80
2022-09-28T12:39:17.601Z,11.60
2022-09-28T12:50:38.783Z,11.10
2022-09-28T12:56:14.698Z,11.00
2022-09-28T13:01:39.534Z,10.90
2022-09-28T13:07:00.121Z,11.10
2022-09-28T13:12:18.452Z,11.50
2022-09-28T13:17:37.423Z,11.70
2022-09-28T13:22:52.884Z,12.00
2022-09-28T13:33:18.801Z,12.10
2022-09-28T13:44:59.266Z,12.20
2022-09-28T13:50:46.182Z,12.10
2022-09-28T13:55:59.748Z,12.10
2022-09-28T14:01:24.673Z,12.10
2022-09-28T14:29:20.864Z,12.40
2022-09-28T14:34:32.356Z,12.50
2022-09-28T14:39:36.451Z,12.40
2022-09-28T14:45:10.508Z,12.40
2022-09-28T14:55:54.449Z,12.30
2022-09-28T15:01:06.118Z,12.20
2022-09-28T15:06:14.456Z,12.10
2022-09-28T15:11:21.203Z,12.00
2022-09-28T15:16:24.141Z,12.10
2022-09-28T15:21:33.572Z,12.00
2022-09-28T15:26:36.824Z,11.90
2022-09-28T15:31:38.597Z,11.80
2022-09-28T15:36:42.004Z,11.80
2022-09-28T15:41:49.062Z,11.80
2022-09-28T15:47:03.067Z,11.70
2022-09-28T15:52:05.813Z,11.70
2022-09-28T15:57:29.830Z,11.60
2022-09-28T16:02:32.112Z,11.60
2022-09-28T16:07:36.631Z,11.50
2022-09-28T16:12:46.413Z,11.40
2022-09-28T16:17:51.697Z,11.40
2022-09-28T16:22:53.478Z,11.30
2022-09-28T16:27:56.907Z,11.20
2022-09-28T16:33:00.526Z,11.10
2022-09-28T16:38:10.999Z,11.10
2022-09-28T16:43:20.224Z,11.00
2022-09-28T16:48:23.455Z,10.90
2022-09-28T16:53:26.103Z,10.80
2022-09-28T16:58:29.455Z,10.70
2022-09-28T17:03:31.336Z,10.60
2022-09-28T17:08:33.237Z,10.50
2022-09-28T17:13:36.565Z,10.40
2022-09-28T17:18:38.797Z,10.40
2022-09-28T17:23:40.574Z,10.30
2022-09-28T17:28:43.712Z,10.30
2022-09-28T17:33:45.706Z,10.20
2022-09-28T18:42:25.704Z,9.80
2022-09-28T18:47:27.722Z,9.80
2022-09-28T18:52:31.004Z,9.80
2022-09-28T18:57:33.344Z,9.80
2022-09-28T19:02:36.211Z,9.70
2022-09-28T19:07:42.481Z,9.60
2022-09-28T19:12:45.945Z,9.60
2022-09-28T19:17:48.229Z,9.50
2022-09-28T19:22:51.678Z,9.40
2022-09-28T19:28:02.508Z,9.30
2022-09-28T19:33:08.505Z,9.30
2022-09-28T19:44:32.682Z,9.20
2022-09-28T19:49:36.167Z,9.10
2022-09-28T19:54:54.651Z,9.10
2022-09-28T20:00:14.298Z,9.10
2022-09-28T20:05:25.528Z,9.10
2022-09-28T20:21:01.897Z,9.10
2022-09-28T20:26:35.170Z,9.10
2022-09-28T20:32:02.668Z,9.10
2022-09-28T20:48:19.971Z,8.80
2022-09-28T20:53:22.010Z,8.70
2022-09-28T20:58:32.962Z,8.70
2022-09-28T21:03:37.590Z,8.70
2022-09-28T21:08:41.349Z,8.60
